sensor_id;sensor_type;location;lat;lon;timestamp;P1;durP1;ratioP1;P2;durP2;ratioP2
29848;SDS011;16728;50.832;5.590;2023-03-14T00:00:50;4.15;;;1.00;;
29848;SDS011;16728;50.832;5.590;2023-03-14T00:03:53;3.97;;;0.97;;
29848;SDS011;16728;50.832;5.590;2023-03-14T00:06:55;3.53;;;0.90;;
29848;SDS011;16728;50.832;5.590;2023-03-14T00:09:57;3.38;;;1.13;;
29848;SDS011;16728;50.832;5.590;2023-03-14T00:13:04;4.72;;;1.00;;
29848;SDS011;16728;50.832;5.590;2023-03-14T00:16:07;5.03;;;1.30;;
29848;SDS011;16728;50.832;5.590;2023-03-14T00:19:11;2.67;;;0.98;;
29848;SDS011;16728;50.832;5.590;2023-03-14T00:22:13;9.70;;;2.00;;
29848;SDS011;16728;50.832;5.590;2023-03-14T00:25:16;7.45;;;1.67;;
29848;SDS011;16728;50.832;5.590;2023-03-14T00:28:19;9.65;;;1.90;;
29848;SDS011;16728;50.832;5.590;2023-03-14T00:31:21;6.65;;;2.10;;
29848;SDS011;16728;50.832;5.590;2023-03-14T00:34:23;5.13;;;1.35;;
29848;SDS011;16728;50.832;5.590;2023-03-14T00:37:30;6.50;;;1.67;;
29848;SDS011;16728;50.832;5.590;2023-03-14T00:40:32;5.15;;;1.23;;
29848;SDS011;16728;50.832;5.590;2023-03-14T00:43:35;6.55;;;1.52;;
29848;SDS011;16728;50.832;5.590;2023-03-14T00:46:37;5.97;;;1.20;;
29848;SDS011;16728;50.832;5.590;2023-03-14T00:49:40;9.68;;;1.40;;
29848;SDS011;16728;50.832;5.590;2023-03-14T00:52:44;6.90;;;1.70;;
29848;SDS011;16728;50.832;5.590;2023-03-14T00:55:47;8.50;;;1.33;;
29848;SDS011;16728;50.832;5.590;2023-03-14T00:58:52;6.93;;;1.30;;
29848;SDS011;16728;50.832;5.590;2023-03-14T01:01:56;5.85;;;1.20;;
29848;SDS011;16728;50.832;5.590;2023-03-14T01:04:59;4.43;;;1.00;;
29848;SDS011;16728;50.832;5.590;2023-03-14T01:08:01;6.57;;;1.55;;
29848;SDS011;16728;50.832;5.590;2023-03-14T01:11:07;3.75;;;1.13;;
29848;SDS011;16728;50.832;5.590;2023-03-14T01:14:10;6.88;;;1.23;;
29848;SDS011;16728;50.832;5.590;2023-03-14T01:17:12;4.03;;;1.25;;
29848;SDS011;16728;50.832;5.590;2023-03-14T01:20:14;4.18;;;1.17;;
29848;SDS011;16728;50.832;5.590;2023-03-14T01:23:17;3.03;;;0.90;;
29848;SDS011;16728;50.832;5.590;2023-03-14T01:29:53;6.28;;;1.90;;
29848;SDS011;16728;50.832;5.590;2023-03-14T01:35:58;6.93;;;1.70;;
29848;SDS011;16728;50.832;5.590;2023-03-14T01:39:04;9.55;;;1.63;;
29848;SDS011;16728;50.832;5.590;2023-03-14T01:42:07;5.87;;;1.53;;
29848;SDS011;16728;50.832;5.590;2023-03-14T01:45:53;8.75;;;1.90;;
29848;SDS011;16728;50.832;5.590;2023-03-14T01:55:12;6.75;;;2.13;;
29848;SDS011;16728;50.832;5.590;2023-03-14T01:58:20;8.80;;;2.00;;
29848;SDS011;16728;50.832;5.590;2023-03-14T02:01:22;11.63;;;2.20;;
29848;SDS011;16728;50.832;5.590;2023-03-14T02:04:27;8.93;;;1.83;;
29848;SDS011;16728;50.832;5.590;2023-03-14T02:07:34;11.10;;;2.10;;
29848;SDS011;16728;50.832;5.590;2023-03-14T02:10:49;8.35;;;2.00;;
29848;SDS011;16728;50.832;5.590;2023-03-14T02:13:52;10.02;;;2.10;;
29848;SDS011;16728;50.832;5.590;2023-03-14T02:16:56;7.55;;;1.98;;
29848;SDS011;16728;50.832;5.590;2023-03-14T02:20:22;11.65;;;2.22;;
29848;SDS011;16728;50.832;5.590;2023-03-14T02:27:08;10.88;;;2.33;;
29848;SDS011;16728;50.832;5.590;2023-03-14T02:30:19;12.30;;;2.15;;
29848;SDS011;16728;50.832;5.590;2023-03-14T02:33:23;8.15;;;2.08;;
29848;SDS011;16728;50.832;5.590;2023-03-14T02:36:26;12.50;;;2.45;;
29848;SDS011;16728;50.832;5.590;2023-03-14T02:39:31;10.57;;;2.67;;
29848;SDS011;16728;50.832;5.590;2023-03-14T02:42:44;9.65;;;1.80;;
29848;SDS011;16728;50.832;5.590;2023-03-14T02:45:46;13.57;;;2.05;;
29848;SDS011;16728;50.832;5.590;2023-03-14T02:48:51;7.00;;;1.90;;
29848;SDS011;16728;50.832;5.590;2023-03-14T02:51:58;11.15;;;2.58;;
29848;SDS011;16728;50.832;5.590;2023-03-14T02:55:00;8.20;;;1.88;;
29848;SDS011;16728;50.832;5.590;2023-03-14T02:58:02;11.65;;;2.58;;
29848;SDS011;16728;50.832;5.590;2023-03-14T03:01:05;9.82;;;2.30;;
29848;SDS011;16728;50.832;5.590;2023-03-14T03:04:07;10.85;;;3.38;;
29848;SDS011;16728;50.832;5.590;2023-03-14T03:07:10;12.05;;;2.33;;
29848;SDS011;16728;50.832;5.590;2023-03-14T03:10:12;7.32;;;2.33;;
29848;SDS011;16728;50.832;5.590;2023-03-14T03:13:23;9.73;;;2.33;;
29848;SDS011;16728;50.832;5.590;2023-03-14T03:16:25;9.30;;;1.77;;
29848;SDS011;16728;50.832;5.590;2023-03-14T03:19:28;8.82;;;2.38;;
29848;SDS011;16728;50.832;5.590;2023-03-14T03:22:30;8.77;;;2.00;;
29848;SDS011;16728;50.832;5.590;2023-03-14T03:25:33;7.00;;;1.92;;
29848;SDS011;16728;50.832;5.590;2023-03-14T03:28:42;7.17;;;2.23;;
29848;SDS011;16728;50.832;5.590;2023-03-14T03:31:44;9.23;;;1.83;;
29848;SDS011;16728;50.832;5.590;2023-03-14T03:34:49;8.65;;;2.05;;
29848;SDS011;16728;50.832;5.590;2023-03-14T03:37:52;5.10;;;1.48;;
29848;SDS011;16728;50.832;5.590;2023-03-14T03:40:53;7.43;;;1.63;;
29848;SDS011;16728;50.832;5.590;2023-03-14T03:43:59;7.05;;;1.42;;
29848;SDS011;16728;50.832;5.590;2023-03-14T03:47:01;7.32;;;1.40;;
29848;SDS011;16728;50.832;5.590;2023-03-14T03:50:08;6.00;;;1.67;;
29848;SDS011;16728;50.832;5.590;2023-03-14T03:53:10;5.03;;;1.33;;
29848;SDS011;16728;50.832;5.590;2023-03-14T03:56:23;5.18;;;1.25;;
29848;SDS011;16728;50.832;5.590;2023-03-14T03:59:25;3.22;;;0.98;;
29848;SDS011;16728;50.832;5.590;2023-03-14T04:02:28;3.72;;;0.95;;
29848;SDS011;16728;50.832;5.590;2023-03-14T04:05:30;3.17;;;1.25;;
29848;SDS011;16728;50.832;5.590;2023-03-14T04:08:33;3.50;;;0.95;;
29848;SDS011;16728;50.832;5.590;2023-03-14T04:11:35;4.55;;;1.05;;
29848;SDS011;16728;50.832;5.590;2023-03-14T04:14:37;5.35;;;1.20;;
29848;SDS011;16728;50.832;5.590;2023-03-14T04:17:39;5.60;;;1.08;;
29848;SDS011;16728;50.832;5.590;2023-03-14T04:20:42;3.13;;;1.58;;
29848;SDS011;16728;50.832;5.590;2023-03-14T04:23:45;3.10;;;0.95;;
29848;SDS011;16728;50.832;5.590;2023-03-14T04:26:47;2.33;;;0.70;;
29848;SDS011;16728;50.832;5.590;2023-03-14T04:29:48;2.53;;;0.80;;
29848;SDS011;16728;50.832;5.590;2023-03-14T04:32:54;1.58;;;0.70;;
29848;SDS011;16728;50.832;5.590;2023-03-14T04:35:56;2.55;;;0.70;;
29848;SDS011;16728;50.832;5.590;2023-03-14T04:38:58;1.92;;;0.90;;
29848;SDS011;16728;50.832;5.590;2023-03-14T04:42:00;1.40;;;0.70;;
29848;SDS011;16728;50.832;5.590;2023-03-14T04:45:02;1.92;;;0.77;;
29848;SDS011;16728;50.832;5.590;2023-03-14T04:48:05;1.33;;;0.80;;
29848;SDS011;16728;50.832;5.590;2023-03-14T04:51:10;3.58;;;0.90;;
29848;SDS011;16728;50.832;5.590;2023-03-14T04:54:12;0.68;;;0.57;;
29848;SDS011;16728;50.832;5.590;2023-03-14T04:57:14;3.60;;;0.90;;
29848;SDS011;16728;50.832;5.590;2023-03-14T05:00:16;0.70;;;0.65;;
29848;SDS011;16728;50.832;5.590;2023-03-14T05:03:19;1.50;;;0.55;;
29848;SDS011;16728;50.832;5.590;2023-03-14T05:06:22;1.52;;;0.70;;
29848;SDS011;16728;50.832;5.590;2023-03-14T05:09:24;1.30;;;0.60;;
29848;SDS011;16728;50.832;5.590;2023-03-14T05:12:26;2.00;;;0.63;;
29848;SDS011;16728;50.832;5.590;2023-03-14T05:15:28;1.05;;;0.60;;
29848;SDS011;16728;50.832;5.590;2023-03-14T05:18:30;1.15;;;0.60;;
29848;SDS011;16728;50.832;5.590;2023-03-14T05:21:33;2.28;;;0.55;;
29848;SDS011;16728;50.832;5.590;2023-03-14T05:24:35;1.95;;;0.55;;
29848;SDS011;16728;50.832;5.590;2023-03-14T05:30:41;0.47;;;0.30;;
29848;SDS011;16728;50.832;5.590;2023-03-14T05:33:43;1.20;;;0.50;;
29848;SDS011;16728;50.832;5.590;2023-03-14T05:36:45;2.70;;;0.63;;
29848;SDS011;16728;50.832;5.590;2023-03-14T05:39:46;0.82;;;0.50;;
29848;SDS011;16728;50.832;5.590;2023-03-14T05:42:48;0.47;;;0.47;;
29848;SDS011;16728;50.832;5.590;2023-03-14T05:45:50;0.73;;;0.50;;
29848;SDS011;16728;50.832;5.590;2023-03-14T05:48:52;0.60;;;0.40;;
29848;SDS011;16728;50.832;5.590;2023-03-14T05:51:54;0.70;;;0.57;;
29848;SDS011;16728;50.832;5.590;2023-03-14T05:54:56;1.25;;;0.40;;
29848;SDS011;16728;50.832;5.590;2023-03-14T05:57:58;0.90;;;0.50;;
29848;SDS011;16728;50.832;5.590;2023-03-14T06:01:03;1.17;;;0.32;;
29848;SDS011;16728;50.832;5.590;2023-03-14T06:04:06;0.50;;;0.50;;
29848;SDS011;16728;50.832;5.590;2023-03-14T06:07:08;0.63;;;0.50;;
29848;SDS011;16728;50.832;5.590;2023-03-14T06:10:11;1.15;;;0.55;;
29848;SDS011;16728;50.832;5.590;2023-03-14T06:13:13;0.70;;;0.47;;
29848;SDS011;16728;50.832;5.590;2023-03-14T06:19:20;0.60;;;0.60;;
29848;SDS011;16728;50.832;5.590;2023-03-14T06:22:22;0.80;;;0.60;;
29848;SDS011;16728;50.832;5.590;2023-03-14T06:25:24;1.08;;;0.75;;
29848;SDS011;16728;50.832;5.590;2023-03-14T06:28:27;1.05;;;0.70;;
29848;SDS011;16728;50.832;5.590;2023-03-14T06:31:30;1.73;;;0.80;;
29848;SDS011;16728;50.832;5.590;2023-03-14T06:34:32;0.82;;;0.77;;
29848;SDS011;16728;50.832;5.590;2023-03-14T06:37:34;0.80;;;0.80;;
29848;SDS011;16728;50.832;5.590;2023-03-14T06:40:42;2.45;;;1.15;;
29848;SDS011;16728;50.832;5.590;2023-03-14T06:43:44;1.05;;;0.90;;
29848;SDS011;16728;50.832;5.590;2023-03-14T06:46:48;1.23;;;0.60;;
29848;SDS011;16728;50.832;5.590;2023-03-14T06:49:50;0.82;;;0.73;;
29848;SDS011;16728;50.832;5.590;2023-03-14T06:52:52;0.75;;;0.70;;
29848;SDS011;16728;50.832;5.590;2023-03-14T06:55:54;1.98;;;0.82;;
29848;SDS011;16728;50.832;5.590;2023-03-14T06:58:58;2.45;;;0.82;;
29848;SDS011;16728;50.832;5.590;2023-03-14T07:02:00;0.90;;;0.60;;
29848;SDS011;16728;50.832;5.590;2023-03-14T07:05:03;1.85;;;0.75;;
29848;SDS011;16728;50.832;5.590;2023-03-14T07:08:05;2.72;;;1.48;;
29848;SDS011;16728;50.832;5.590;2023-03-14T07:11:09;2.08;;;0.80;;
29848;SDS011;16728;50.832;5.590;2023-03-14T07:14:20;1.88;;;0.68;;
29848;SDS011;16728;50.832;5.590;2023-03-14T07:17:24;2.42;;;1.00;;
29848;SDS011;16728;50.832;5.590;2023-03-14T07:20:26;1.45;;;0.52;;
29848;SDS011;16728;50.832;5.590;2023-03-14T07:23:28;1.17;;;0.77;;
29848;SDS011;16728;50.832;5.590;2023-03-14T07:26:32;3.08;;;1.00;;
29848;SDS011;16728;50.832;5.590;2023-03-14T07:29:33;2.35;;;1.00;;
29848;SDS011;16728;50.832;5.590;2023-03-14T07:32:35;2.13;;;1.20;;
29848;SDS011;16728;50.832;5.590;2023-03-14T07:35:37;1.58;;;1.13;;
29848;SDS011;16728;50.832;5.590;2023-03-14T07:38:39;2.20;;;1.08;;
29848;SDS011;16728;50.832;5.590;2023-03-14T07:41:43;1.83;;;1.00;;
29848;SDS011;16728;50.832;5.590;2023-03-14T07:44:44;1.10;;;0.82;;
29848;SDS011;16728;50.832;5.590;2023-03-14T07:47:48;2.28;;;1.08;;
29848;SDS011;16728;50.832;5.590;2023-03-14T07:50:53;3.92;;;1.00;;
29848;SDS011;16728;50.832;5.590;2023-03-14T07:53:56;3.97;;;1.00;;
29848;SDS011;16728;50.832;5.590;2023-03-14T07:56:57;1.15;;;0.80;;
29848;SDS011;16728;50.832;5.590;2023-03-14T08:00:03;0.90;;;0.77;;
29848;SDS011;16728;50.832;5.590;2023-03-14T08:03:06;0.95;;;0.68;;
29848;SDS011;16728;50.832;5.590;2023-03-14T08:06:13;2.50;;;0.70;;
29848;SDS011;16728;50.832;5.590;2023-03-14T08:09:15;1.33;;;0.68;;
29848;SDS011;16728;50.832;5.590;2023-03-14T08:12:17;1.15;;;0.60;;
29848;SDS011;16728;50.832;5.590;2023-03-14T08:15:28;3.10;;;1.00;;
29848;SDS011;16728;50.832;5.590;2023-03-14T08:18:31;0.70;;;0.70;;
29848;SDS011;16728;50.832;5.590;2023-03-14T08:21:35;2.55;;;1.52;;
29848;SDS011;16728;50.832;5.590;2023-03-14T08:24:44;1.63;;;1.35;;
29848;SDS011;16728;50.832;5.590;2023-03-14T08:27:47;1.98;;;1.30;;
29848;SDS011;16728;50.832;5.590;2023-03-14T08:30:49;1.80;;;1.23;;
29848;SDS011;16728;50.832;5.590;2023-03-14T08:33:51;1.60;;;1.50;;
29848;SDS011;16728;50.832;5.590;2023-03-14T08:36:54;1.73;;;1.13;;
29848;SDS011;16728;50.832;5.590;2023-03-14T08:39:58;1.10;;;1.00;;
29848;SDS011;16728;50.832;5.590;2023-03-14T08:43:00;1.05;;;0.90;;
29848;SDS011;16728;50.832;5.590;2023-03-14T08:46:02;1.85;;;0.90;;
29848;SDS011;16728;50.832;5.590;2023-03-14T08:49:10;2.40;;;1.08;;
29848;SDS011;16728;50.832;5.590;2023-03-14T08:52:12;5.15;;;1.58;;
29848;SDS011;16728;50.832;5.590;2023-03-14T08:55:18;2.47;;;1.27;;
29848;SDS011;16728;50.832;5.590;2023-03-14T08:58:20;3.58;;;1.42;;
29848;SDS011;16728;50.832;5.590;2023-03-14T09:01:24;1.67;;;1.42;;
29848;SDS011;16728;50.832;5.590;2023-03-14T09:04:27;2.45;;;1.25;;
29848;SDS011;16728;50.832;5.590;2023-03-14T09:07:30;2.33;;;1.40;;
29848;SDS011;16728;50.832;5.590;2023-03-14T09:10:32;3.47;;;1.50;;
29848;SDS011;16728;50.832;5.590;2023-03-14T09:13:35;2.15;;;1.02;;
29848;SDS011;16728;50.832;5.590;2023-03-14T09:16:37;2.87;;;1.40;;
29848;SDS011;16728;50.832;5.590;2023-03-14T09:19:39;1.67;;;1.50;;
29848;SDS011;16728;50.832;5.590;2023-03-14T09:22:41;2.22;;;1.63;;
29848;SDS011;16728;50.832;5.590;2023-03-14T09:25:44;3.75;;;1.85;;
29848;SDS011;16728;50.832;5.590;2023-03-14T09:28:46;2.13;;;1.73;;
29848;SDS011;16728;50.832;5.590;2023-03-14T09:31:48;4.25;;;1.83;;
29848;SDS011;16728;50.832;5.590;2023-03-14T09:34:50;3.03;;;1.87;;
29848;SDS011;16728;50.832;5.590;2023-03-14T09:37:52;3.92;;;1.98;;
29848;SDS011;16728;50.832;5.590;2023-03-14T09:40:54;7.38;;;2.00;;
29848;SDS011;16728;50.832;5.590;2023-03-14T09:44:24;3.03;;;1.70;;
29848;SDS011;16728;50.832;5.590;2023-03-14T09:47:22;2.28;;;1.70;;
29848;SDS011;16728;50.832;5.590;2023-03-14T09:50:25;3.53;;;1.92;;
29848;SDS011;16728;50.832;5.590;2023-03-14T09:56:40;3.60;;;1.77;;
29848;SDS011;16728;50.832;5.590;2023-03-14T09:59:43;2.40;;;1.30;;
29848;SDS011;16728;50.832;5.590;2023-03-14T10:02:50;2.22;;;1.45;;
29848;SDS011;16728;50.832;5.590;2023-03-14T10:05:55;1.92;;;1.13;;
29848;SDS011;16728;50.832;5.590;2023-03-14T10:08:58;3.00;;;1.50;;
29848;SDS011;16728;50.832;5.590;2023-03-14T10:12:00;3.35;;;1.65;;
29848;SDS011;16728;50.832;5.590;2023-03-14T10:15:12;3.22;;;1.40;;
29848;SDS011;16728;50.832;5.590;2023-03-14T10:18:19;3.67;;;1.20;;
29848;SDS011;16728;50.832;5.590;2023-03-14T10:21:27;3.47;;;1.65;;
29848;SDS011;16728;50.832;5.590;2023-03-14T10:24:32;4.45;;;1.40;;
29848;SDS011;16728;50.832;5.590;2023-03-14T10:27:40;2.15;;;1.13;;
29848;SDS011;16728;50.832;5.590;2023-03-14T10:30:43;1.23;;;1.10;;
29848;SDS011;16728;50.832;5.590;2023-03-14T10:33:59;3.05;;;1.73;;
29848;SDS011;16728;50.832;5.590;2023-03-14T10:37:06;2.50;;;1.27;;
29848;SDS011;16728;50.832;5.590;2023-03-14T10:40:39;2.28;;;1.15;;
29848;SDS011;16728;50.832;5.590;2023-03-14T10:43:49;2.53;;;1.30;;
29848;SDS011;16728;50.832;5.590;2023-03-14T10:46:55;1.92;;;1.23;;
29848;SDS011;16728;50.832;5.590;2023-03-14T10:59:35;1.73;;;0.65;;
29848;SDS011;16728;50.832;5.590;2023-03-14T11:06:06;1.02;;;0.63;;
29848;SDS011;16728;50.832;5.590;2023-03-14T11:09:25;2.90;;;0.93;;
29848;SDS011;16728;50.832;5.590;2023-03-14T11:15:36;2.08;;;0.75;;
29848;SDS011;16728;50.832;5.590;2023-03-14T11:22:33;2.90;;;0.90;;
29848;SDS011;16728;50.832;5.590;2023-03-14T11:33:08;1.80;;;0.88;;
29848;SDS011;16728;50.832;5.590;2023-03-14T11:36:16;0.90;;;0.70;;
29848;SDS011;16728;50.832;5.590;2023-03-14T11:39:24;1.67;;;0.85;;
29848;SDS011;16728;50.832;5.590;2023-03-14T11:42:27;1.30;;;1.20;;
29848;SDS011;16728;50.832;5.590;2023-03-14T11:45:38;1.55;;;1.17;;
29848;SDS011;16728;50.832;5.590;2023-03-14T11:48:46;2.67;;;1.00;;
29848;SDS011;16728;50.832;5.590;2023-03-14T11:52:20;2.03;;;0.90;;
29848;SDS011;16728;50.832;5.590;2023-03-14T11:55:27;1.13;;;1.02;;
29848;SDS011;16728;50.832;5.590;2023-03-14T11:58:34;3.28;;;1.00;;
29848;SDS011;16728;50.832;5.590;2023-03-14T12:18:01;1.13;;;0.60;;
29848;SDS011;16728;50.832;5.590;2023-03-14T12:21:04;0.60;;;0.60;;
29848;SDS011;16728;50.832;5.590;2023-03-14T12:24:14;1.08;;;0.70;;
29848;SDS011;16728;50.832;5.590;2023-03-14T12:27:38;0.85;;;0.60;;
29848;SDS011;16728;50.832;5.590;2023-03-14T12:30:44;0.63;;;0.63;;
29848;SDS011;16728;50.832;5.590;2023-03-14T12:33:46;1.83;;;0.90;;
29848;SDS011;16728;50.832;5.590;2023-03-14T12:37:36;2.45;;;0.98;;
29848;SDS011;16728;50.832;5.590;2023-03-14T12:40:20;2.00;;;1.13;;
29848;SDS011;16728;50.832;5.590;2023-03-14T12:43:28;1.15;;;0.95;;
29848;SDS011;16728;50.832;5.590;2023-03-14T12:46:32;2.00;;;1.08;;
29848;SDS011;16728;50.832;5.590;2023-03-14T12:49:35;1.05;;;0.85;;
29848;SDS011;16728;50.832;5.590;2023-03-14T12:59:34;3.28;;;1.20;;
29848;SDS011;16728;50.832;5.590;2023-03-14T13:02:50;1.02;;;0.90;;
29848;SDS011;16728;50.832;5.590;2023-03-14T13:05:55;2.28;;;1.20;;
29848;SDS011;16728;50.832;5.590;2023-03-14T13:12:30;2.53;;;1.38;;
29848;SDS011;16728;50.832;5.590;2023-03-14T13:15:41;2.88;;;1.80;;
29848;SDS011;16728;50.832;5.590;2023-03-14T13:18:46;5.13;;;1.70;;
29848;SDS011;16728;50.832;5.590;2023-03-14T13:21:50;5.72;;;1.70;;
29848;SDS011;16728;50.832;5.590;2023-03-14T13:25:03;7.43;;;1.83;;
29848;SDS011;16728;50.832;5.590;2023-03-14T13:28:11;7.22;;;2.03;;
29848;SDS011;16728;50.832;5.590;2023-03-14T13:31:23;8.32;;;2.13;;
29848;SDS011;16728;50.832;5.590;2023-03-14T13:34:32;7.07;;;2.53;;
29848;SDS011;16728;50.832;5.590;2023-03-14T13:37:38;9.38;;;3.00;;
29848;SDS011;16728;50.832;5.590;2023-03-14T13:40:50;5.50;;;2.10;;
29848;SDS011;16728;50.832;5.590;2023-03-14T13:44:03;7.60;;;2.10;;
29848;SDS011;16728;50.832;5.590;2023-03-14T13:47:16;11.55;;;2.38;;
29848;SDS011;16728;50.832;5.590;2023-03-14T13:50:20;6.80;;;2.08;;
29848;SDS011;16728;50.832;5.590;2023-03-14T13:53:23;5.20;;;2.17;;
29848;SDS011;16728;50.832;5.590;2023-03-14T13:56:29;9.27;;;2.15;;
29848;SDS011;16728;50.832;5.590;2023-03-14T13:59:35;8.35;;;2.05;;
29848;SDS011;16728;50.832;5.590;2023-03-14T14:02:37;10.82;;;2.42;;
29848;SDS011;16728;50.832;5.590;2023-03-14T14:05:40;8.35;;;1.90;;
29848;SDS011;16728;50.832;5.590;2023-03-14T14:08:46;6.65;;;2.03;;
29848;SDS011;16728;50.832;5.590;2023-03-14T14:11:55;5.00;;;1.63;;
29848;SDS011;16728;50.832;5.590;2023-03-14T14:15:17;8.77;;;2.25;;
29848;SDS011;16728;50.832;5.590;2023-03-14T14:18:27;3.40;;;1.60;;
29848;SDS011;16728;50.832;5.590;2023-03-14T14:21:31;7.25;;;2.10;;
29848;SDS011;16728;50.832;5.590;2023-03-14T14:24:35;7.88;;;1.95;;
29848;SDS011;16728;50.832;5.590;2023-03-14T14:27:39;6.50;;;2.00;;
29848;SDS011;16728;50.832;5.590;2023-03-14T14:30:44;11.57;;;2.60;;
29848;SDS011;16728;50.832;5.590;2023-03-14T14:33:53;9.60;;;2.20;;
29848;SDS011;16728;50.832;5.590;2023-03-14T14:40:07;12.07;;;3.05;;
29848;SDS011;16728;50.832;5.590;2023-03-14T14:43:15;8.48;;;2.05;;
29848;SDS011;16728;50.832;5.590;2023-03-14T14:46:23;9.00;;;2.45;;
29848;SDS011;16728;50.832;5.590;2023-03-14T14:49:33;8.30;;;2.15;;
29848;SDS011;16728;50.832;5.590;2023-03-14T14:52:42;10.48;;;2.65;;
29848;SDS011;16728;50.832;5.590;2023-03-14T14:55:49;6.30;;;2.15;;
29848;SDS011;16728;50.832;5.590;2023-03-14T14:58:59;9.07;;;2.50;;
29848;SDS011;16728;50.832;5.590;2023-03-14T15:02:03;9.40;;;2.03;;
29848;SDS011;16728;50.832;5.590;2023-03-14T15:05:11;9.67;;;2.17;;
29848;SDS011;16728;50.832;5.590;2023-03-14T15:08:17;9.98;;;1.75;;
29848;SDS011;16728;50.832;5.590;2023-03-14T15:11:21;17.67;;;3.30;;
29848;SDS011;16728;50.832;5.590;2023-03-14T15:14:25;12.50;;;2.60;;
29848;SDS011;16728;50.832;5.590;2023-03-14T15:17:27;12.60;;;3.00;;
29848;SDS011;16728;50.832;5.590;2023-03-14T15:20:29;14.10;;;3.03;;
29848;SDS011;16728;50.832;5.590;2023-03-14T15:23:32;10.18;;;2.25;;
29848;SDS011;16728;50.832;5.590;2023-03-14T15:26:36;6.68;;;1.88;;
29848;SDS011;16728;50.832;5.590;2023-03-14T15:29:38;7.07;;;1.80;;
29848;SDS011;16728;50.832;5.590;2023-03-14T15:32:40;3.95;;;1.50;;
29848;SDS011;16728;50.832;5.590;2023-03-14T15:35:43;5.53;;;2.03;;
29848;SDS011;16728;50.832;5.590;2023-03-14T15:38:45;10.60;;;1.92;;
29848;SDS011;16728;50.832;5.590;2023-03-14T15:41:47;5.85;;;1.95;;
29848;SDS011;16728;50.832;5.590;2023-03-14T15:44:49;3.72;;;1.42;;
29848;SDS011;16728;50.832;5.590;2023-03-14T15:47:51;7.38;;;1.40;;
29848;SDS011;16728;50.832;5.590;2023-03-14T15:50:53;4.68;;;1.50;;
29848;SDS011;16728;50.832;5.590;2023-03-14T15:53:55;9.60;;;1.88;;
29848;SDS011;16728;50.832;5.590;2023-03-14T15:56:58;6.90;;;2.03;;
29848;SDS011;16728;50.832;5.590;2023-03-14T16:00:00;12.77;;;3.30;;
29848;SDS011;16728;50.832;5.590;2023-03-14T16:03:02;11.10;;;3.38;;
29848;SDS011;16728;50.832;5.590;2023-03-14T16:06:04;13.85;;;2.70;;
29848;SDS011;16728;50.832;5.590;2023-03-14T16:09:06;10.53;;;3.03;;
29848;SDS011;16728;50.832;5.590;2023-03-14T16:12:08;19.20;;;14.02;;
29848;SDS011;16728;50.832;5.590;2023-03-14T16:15:14;3.58;;;1.50;;
29848;SDS011;16728;50.832;5.590;2023-03-14T16:18:16;7.25;;;1.30;;
29848;SDS011;16728;50.832;5.590;2023-03-14T16:21:22;5.82;;;1.90;;
29848;SDS011;16728;50.832;5.590;2023-03-14T16:24:24;8.38;;;1.70;;
29848;SDS011;16728;50.832;5.590;2023-03-14T16:27:27;5.82;;;1.98;;
29848;SDS011;16728;50.832;5.590;2023-03-14T16:30:30;2.92;;;1.60;;
29848;SDS011;16728;50.832;5.590;2023-03-14T16:33:33;5.20;;;1.40;;
29848;SDS011;16728;50.832;5.590;2023-03-14T16:36:35;8.32;;;1.88;;
29848;SDS011;16728;50.832;5.590;2023-03-14T16:39:38;11.18;;;2.88;;
29848;SDS011;16728;50.832;5.590;2023-03-14T16:42:59;13.98;;;6.20;;
29848;SDS011;16728;50.832;5.590;2023-03-14T16:46:16;11.32;;;2.85;;
29848;SDS011;16728;50.832;5.590;2023-03-14T16:49:19;14.13;;;2.35;;
29848;SDS011;16728;50.832;5.590;2023-03-14T16:52:21;7.80;;;1.90;;
29848;SDS011;16728;50.832;5.590;2023-03-14T16:55:22;10.43;;;2.33;;
29848;SDS011;16728;50.832;5.590;2023-03-14T16:58:25;11.65;;;2.60;;
29848;SDS011;16728;50.832;5.590;2023-03-14T17:01:27;10.43;;;1.98;;
29848;SDS011;16728;50.832;5.590;2023-03-14T17:04:31;6.30;;;2.00;;
29848;SDS011;16728;50.832;5.590;2023-03-14T17:07:33;5.85;;;2.38;;
29848;SDS011;16728;50.832;5.590;2023-03-14T17:10:40;11.93;;;2.17;;
29848;SDS011;16728;50.832;5.590;2023-03-14T17:13:42;10.27;;;2.03;;
29848;SDS011;16728;50.832;5.590;2023-03-14T17:19:50;5.65;;;1.38;;
29848;SDS011;16728;50.832;5.590;2023-03-14T17:22:53;9.20;;;1.90;;
29848;SDS011;16728;50.832;5.590;2023-03-14T17:25:54;13.07;;;2.00;;
29848;SDS011;16728;50.832;5.590;2023-03-14T17:29:01;8.75;;;1.70;;
29848;SDS011;16728;50.832;5.590;2023-03-14T17:32:04;9.35;;;1.98;;
29848;SDS011;16728;50.832;5.590;2023-03-14T17:35:07;8.25;;;1.90;;
29848;SDS011;16728;50.832;5.590;2023-03-14T17:38:09;7.80;;;1.60;;
29848;SDS011;16728;50.832;5.590;2023-03-14T17:41:12;9.05;;;2.63;;
29848;SDS011;16728;50.832;5.590;2023-03-14T17:47:21;3.47;;;2.00;;
29848;SDS011;16728;50.832;5.590;2023-03-14T17:50:23;12.75;;;2.05;;
29848;SDS011;16728;50.832;5.590;2023-03-14T17:53:25;9.55;;;2.45;;
29848;SDS011;16728;50.832;5.590;2023-03-14T17:56:27;9.05;;;2.30;;
29848;SDS011;16728;50.832;5.590;2023-03-14T17:59:29;8.88;;;2.42;;
29848;SDS011;16728;50.832;5.590;2023-03-14T18:02:31;10.18;;;2.50;;
29848;SDS011;16728;50.832;5.590;2023-03-14T18:05:36;11.20;;;3.38;;
29848;SDS011;16728;50.832;5.590;2023-03-14T18:08:39;17.17;;;2.88;;
29848;SDS011;16728;50.832;5.590;2023-03-14T18:11:44;10.80;;;2.95;;
29848;SDS011;16728;50.832;5.590;2023-03-14T18:14:48;14.38;;;3.13;;
29848;SDS011;16728;50.832;5.590;2023-03-14T18:17:50;11.07;;;2.67;;
29848;SDS011;16728;50.832;5.590;2023-03-14T18:20:52;9.20;;;2.28;;
29848;SDS011;16728;50.832;5.590;2023-03-14T18:23:55;10.10;;;2.58;;
29848;SDS011;16728;50.832;5.590;2023-03-14T18:26:57;13.68;;;2.72;;
29848;SDS011;16728;50.832;5.590;2023-03-14T18:29:58;9.02;;;2.47;;
29848;SDS011;16728;50.832;5.590;2023-03-14T18:33:00;15.98;;;2.22;;
29848;SDS011;16728;50.832;5.590;2023-03-14T18:36:03;8.07;;;2.17;;
29848;SDS011;16728;50.832;5.590;2023-03-14T18:39:06;10.45;;;2.58;;
29848;SDS011;16728;50.832;5.590;2023-03-14T18:42:11;9.48;;;2.55;;
29848;SDS011;16728;50.832;5.590;2023-03-14T18:45:13;15.88;;;2.78;;
29848;SDS011;16728;50.832;5.590;2023-03-14T18:48:15;10.95;;;2.22;;
29848;SDS011;16728;50.832;5.590;2023-03-14T18:51:18;9.93;;;2.30;;
29848;SDS011;16728;50.832;5.590;2023-03-14T18:54:20;9.88;;;2.33;;
29848;SDS011;16728;50.832;5.590;2023-03-14T18:57:21;11.50;;;2.75;;
29848;SDS011;16728;50.832;5.590;2023-03-14T19:00:23;11.93;;;5.32;;
29848;SDS011;16728;50.832;5.590;2023-03-14T19:03:28;9.93;;;2.30;;
29848;SDS011;16728;50.832;5.590;2023-03-14T19:06:37;12.32;;;3.00;;
29848;SDS011;16728;50.832;5.590;2023-03-14T19:09:39;13.53;;;3.20;;
29848;SDS011;16728;50.832;5.590;2023-03-14T19:12:43;13.18;;;3.90;;
29848;SDS011;16728;50.832;5.590;2023-03-14T19:15:46;12.18;;;3.47;;
29848;SDS011;16728;50.832;5.590;2023-03-14T19:21:52;11.57;;;2.90;;
29848;SDS011;16728;50.832;5.590;2023-03-14T19:24:55;12.02;;;2.53;;
29848;SDS011;16728;50.832;5.590;2023-03-14T19:27:57;10.45;;;2.75;;
29848;SDS011;16728;50.832;5.590;2023-03-14T19:31:00;15.32;;;3.65;;
29848;SDS011;16728;50.832;5.590;2023-03-14T19:34:03;10.65;;;2.60;;
29848;SDS011;16728;50.832;5.590;2023-03-14T19:37:06;12.63;;;2.92;;
29848;SDS011;16728;50.832;5.590;2023-03-14T19:40:08;14.73;;;3.50;;
29848;SDS011;16728;50.832;5.590;2023-03-14T19:43:10;9.27;;;3.03;;
29848;SDS011;16728;50.832;5.590;2023-03-14T19:46:13;13.50;;;3.20;;
29848;SDS011;16728;50.832;5.590;2023-03-14T19:49:16;10.63;;;3.17;;
29848;SDS011;16728;50.832;5.590;2023-03-14T19:52:18;8.27;;;2.63;;
29848;SDS011;16728;50.832;5.590;2023-03-14T19:55:20;7.53;;;2.53;;
29848;SDS011;16728;50.832;5.590;2023-03-14T19:58:22;8.75;;;2.47;;
29848;SDS011;16728;50.832;5.590;2023-03-14T20:01:25;10.87;;;2.77;;